Historyczne dane pomiarowe

Dodano dane terminowe – wersja testowa.

Dane z okresu 1951-2019

Wersja bazy: 1.34 [2019-03-16, lista zmian], aktualizacja planowana na 2019-04-15

Dane meteo z obszaru Polski uzyskane na podstawie danych udostępnionych przez Instytut Meteorologii i Gospodarki Wodnej – Państwowy Instytut Badawczy.

 

Wybierz Datę:    

       

TemperaturaWilgotnośćWiatrCiśnienieOpadyŚniegCzas trwania zjawisk
 Stacja t tx tn tng RH VA  wxwx mslp ppp RRR   cm mm wxwxwxwxwxwxwx
1983-08-14 15.6 18.3 10.7 8.7 53.0- 3.0 4.0---- 0.0------------
1983-08-13 14.6 18.0 12.8 11.7 77.5- 4.7 7.3---- 4.8------------
1983-08-12 18.5 21.4 15.9 11.8 64.8- 5.0 4.7---- 4.9------------
1983-08-11 19.7 21.7 16.0 14.1 74.5- 0.7 3.0---- 0.0------------
1983-08-10 19.2 21.3 15.7 14.1 79.8- 0.3 3.3---- 0.0------------
1983-08-09 18.6 20.6 15.9 14.6 81.3- 1.0 4.3---- 0.0------------
1983-08-08 18.1 19.4 16.1 15.2 84.0- 2.7 3.7---- 0.0------------
1983-08-07 17.9 19.0 16.0 14.9 80.0- 4.3 5.0---- 0.0------------
1983-08-06 16.3 18.5 12.8 11.1 79.0- 1.7 3.0---- 0.0------------
1983-08-05 16.1 17.2 14.1 9.6 79.3- 5.0 5.3---- 0.9------------
1983-08-04 17.1 18.1 15.7 15.6 84.8- 6.7 6.0---- 1.9------------
1983-08-03 16.5 18.9 14.1 13.7 85.0- 8.0 8.0---- 27.3------------
1983-08-02 19.6 24.2 18.4 18.3 66.8- 5.3 4.3---- 14.2------------
1983-08-01 20.3 26.6 15.3 12.8 65.3- 3.0 9.3---- 0.0------------
1983-07-31 17.2 19.8 15.2 13.8 74.5- 5.3 3.0---- 0.3------------
1983-07-30 17.5 19.9 15.2 14.5 71.5- 5.7 7.7---- 0.0------------
1983-07-29 18.7 21.5 16.2 14.3 67.8- 5.7 8.3---- 0.2------------
1983-07-28 20.4 24.1 16.8 12.2 71.0- 6.3 8.0---- 0.0------------
1983-07-27 18.7 22.0 14.4 11.4 78.8- 3.7 2.0---- 0.0------------
1983-07-26 19.0 22.1 16.1 15.1 66.5- 0.7 4.7---- 0.0------------
1983-07-25 17.1 20.2 14.2 12.4 76.3- 1.7 5.3---- 0.0------------
1983-07-24 17.2 18.1 15.9 15.2 81.3- 5.0 4.0---- 0.0------------
1983-07-23 17.6 19.3 16.0 14.4 75.5- 7.3 5.7---- 0.2------------
1983-07-22 16.3 20.3 13.4 12.4 59.0- 6.0 5.7---- 0.0------------
1983-07-21 15.0 18.9 10.8 8.3 58.0- 3.7 6.7---- 0.0------------
1983-07-20 15.4 17.7 13.5 10.3 52.3- 5.3 7.3---- 3.6------------
1983-07-19 19.7 23.0 17.6 17.7 66.3- 5.7 8.3---- 0.0------------
1983-07-18 21.5 28.5 15.4 14.6 67.0- 6.0 6.0---- 0.3------------
1983-07-17 17.5 20.1 14.0 10.1 74.0- 2.0 4.7---- 0.0------------
1983-07-16 20.3 23.4 18.4 17.6 61.0- 3.7 6.7---- 0.0------------
1983-07-15 20.9 25.4 15.9 12.4 54.0- 0.3 3.7---- 0.0------------
1983-07-14 19.1 21.5 18.1 18.3 66.5- 2.0 6.0---- 0.0------------
1983-07-13 21.3 24.7 18.7 15.4 78.8- 2.7 4.0---- 0.0------------
1983-07-12 22.2 24.5 19.3 17.6 67.3- 3.3 4.0---- 0.0------------
1983-07-11 21.6 24.6 18.9 18.2 62.8- 5.3 4.0---- 0.0------------
1983-07-10 21.2 23.4 18.3 16.9 61.3- 0.7 3.3---- 0.0------------
1983-07-09 19.6 23.4 15.0 13.4 66.8- 4.3 3.3---- 0.0------------
1983-07-08 17.5 19.4 14.2 12.8 81.3- 1.3 3.3---- 0.0------------
1983-07-07 18.3 19.4 11.8 9.4 68.0- 0.0 3.7---- 0.0------------
1983-07-06 17.8 21.5 14.3 8.9 72.3- 0.7 2.7---- 0.0------------
1983-07-05 17.3 21.4 12.5 11.0 78.3- 1.0 4.0---- 0.0------------
1983-07-04 16.9 19.8 14.3 11.1 70.5- 4.0 5.3---- 0.0------------
1983-07-03 16.6 21.1 12.5 10.1 72.8- 5.0 2.7---- 0.0------------
1983-07-02 15.1 18.7 13.6 12.7 78.8- 2.0 5.3---- 0.0------------
1983-07-01 17.1 22.0 14.8 14.3 77.5- 4.7 8.7---- 5.4------------
1983-06-30 18.7 23.3 13.9 12.9 62.5- 6.0 5.3---- 0.0------------
1983-06-29 14.3 18.4 11.0 9.3 68.5- 4.3 6.0---- 0.0------------
1983-06-28 14.9 16.8 12.7 10.7 66.8- 5.3 4.3---- 0.0------------
1983-06-27 16.8 22.1 12.5 7.3 69.8- 7.0 4.7---- 1.5------------
1983-06-26 17.0 21.1 12.6 9.9 71.8- 3.3 4.3---- 0.0------------
1983-06-25 19.7 23.5 16.5 6.1 44.0- 4.7 7.0---- 0.0------------
1983-06-24 16.3 19.3 9.4 6.9 61.0- 0.3 2.3---- 0.0------------
1983-06-23 13.4 16.5 9.4 5.4 66.0- 0.0 3.0---- 0.0------------
1983-06-22 12.7 13.5 11.6 9.1 60.0- 0.7 4.0---- 0.0------------
1983-06-21 13.9 17.6 12.2 9.3 69.0- 3.0 6.3---- 0.0------------
1983-06-20 15.1 17.2 12.2 10.1 71.3- 1.7 3.7---- 0.0------------
1983-06-19 13.9 16.5 9.8 8.1 63.5- 0.7 5.0---- 0.0------------
1983-06-18 13.0 14.2 11.8 11.3 84.5- 7.3 4.7---- 0.0------------
1983-06-17 14.4 18.3 11.3 9.4 72.3- 4.3 6.3---- 0.0------------
1983-06-16 13.9 15.1 12.7 11.1 62.0- 7.3 6.3---- 0.0------------
454.9 ms

 

Źródłem pochodzenia danych jest Instytut Meteorologii i Gospodarki Wodnej – Państwowy Instytut Badawczy. Dane Instytutu Meteorologii i Gospodarki Wodnej – Państwowego Instytutu Badawczego zostały przetworzone.

Dane źródłowe można odnaleźć na stronie https://dane.imgw.pl